createdAt,value
2019-03-12T00:00:15.360Z,5.67
2019-03-12T00:02:43.890Z,12.10
2019-03-12T00:05:12.591Z,12.97
2019-03-12T00:07:41.288Z,9.23
2019-03-12T00:10:09.780Z,8.73
2019-03-12T00:12:38.295Z,9.97
2019-03-12T00:15:07.687Z,10.10
2019-03-12T00:17:36.123Z,11.17
2019-03-12T00:20:06.487Z,8.13
2019-03-12T00:22:34.928Z,5.93
2019-03-12T00:25:03.354Z,8.37
2019-03-12T00:27:31.867Z,11.87
2019-03-12T00:30:00.546Z,6.77
2019-03-12T00:32:28.983Z,8.37
2019-03-12T00:34:57.398Z,11.53
2019-03-12T00:37:25.848Z,14.10
2019-03-12T00:39:54.266Z,10.10
2019-03-12T00:42:22.721Z,10.80
2019-03-12T00:44:51.503Z,15.20
2019-03-12T00:47:19.950Z,8.20
2019-03-12T00:49:48.378Z,12.00
2019-03-12T00:52:16.818Z,8.80
2019-03-12T00:54:45.272Z,13.37
2019-03-12T00:57:13.758Z,8.60
2019-03-12T00:59:42.187Z,11.80
2019-03-12T01:02:10.879Z,7.30
2019-03-12T01:04:39.306Z,11.83
2019-03-12T01:07:07.743Z,9.50
2019-03-12T01:09:36.167Z,14.30
2019-03-12T01:12:04.743Z,17.67
2019-03-12T01:14:33.435Z,10.40
2019-03-12T01:17:02.143Z,9.67
2019-03-12T01:19:30.562Z,12.23
2019-03-12T01:21:59.006Z,10.90
2019-03-12T01:24:27.687Z,11.67
2019-03-12T01:26:56.394Z,18.53
2019-03-12T01:29:24.818Z,14.10
2019-03-12T01:31:53.508Z,12.70
2019-03-12T01:34:21.932Z,13.97
2019-03-12T01:36:50.389Z,14.10
2019-03-12T01:39:18.806Z,15.50
2019-03-12T01:41:47.263Z,18.93
2019-03-12T01:44:15.939Z,19.30
2019-03-12T01:46:44.381Z,16.73
2019-03-12T01:49:12.799Z,11.87
2019-03-12T01:51:41.242Z,17.23
2019-03-12T01:54:09.923Z,15.77
2019-03-12T01:56:38.358Z,20.87
2019-03-12T01:59:07.124Z,15.17
2019-03-12T02:01:35.542Z,11.90
2019-03-12T02:04:04.047Z,18.57
2019-03-12T02:06:32.766Z,16.03
2019-03-12T02:09:01.192Z,15.50
2019-03-12T02:11:29.607Z,21.27
2019-03-12T02:13:58.047Z,13.40
2019-03-12T02:16:26.479Z,17.30
2019-03-12T02:18:55.178Z,11.63
2019-03-12T02:21:23.612Z,22.23
2019-03-12T02:23:52.314Z,15.87
2019-03-12T02:26:20.999Z,21.43
2019-03-12T02:28:49.702Z,22.23
2019-03-12T02:31:18.123Z,22.13
2019-03-12T02:33:46.824Z,20.60
2019-03-12T02:36:15.248Z,19.97
2019-03-12T02:38:43.678Z,23.90
2019-03-12T02:41:12.096Z,23.73
2019-03-12T02:43:40.815Z,18.10
2019-03-12T02:46:09.231Z,21.43
2019-03-12T02:48:37.935Z,24.70
2019-03-12T02:51:06.431Z,33.10
2019-03-12T02:53:34.886Z,23.67
2019-03-12T02:56:03.660Z,19.17
2019-03-12T02:58:32.094Z,20.47
2019-03-12T03:01:00.518Z,19.87
2019-03-12T03:03:29.210Z,24.23
2019-03-12T03:05:59.344Z,29.57
2019-03-12T03:08:29.424Z,16.57
2019-03-12T03:10:58.095Z,20.30
2019-03-12T03:13:26.606Z,23.73
2019-03-12T03:15:55.355Z,20.10
2019-03-12T03:18:23.797Z,19.63
2019-03-12T03:20:52.228Z,21.50
2019-03-12T03:23:21.021Z,21.60
2019-03-12T03:25:49.503Z,20.03
2019-03-12T03:28:17.963Z,19.03
2019-03-12T03:30:46.474Z,19.07
2019-03-12T03:33:14.964Z,18.03
2019-03-12T03:35:43.399Z,16.00
2019-03-12T03:38:11.930Z,12.83
2019-03-12T03:40:40.425Z,19.33
2019-03-12T03:43:08.867Z,22.83
2019-03-12T03:45:37.544Z,22.27
2019-03-12T03:48:05.984Z,16.70
2019-03-12T03:50:34.416Z,21.47
2019-03-12T03:53:02.851Z,14.60
2019-03-12T03:55:31.540Z,16.60
2019-03-12T03:58:00.052Z,15.70
2019-03-12T04:00:28.618Z,21.23
2019-03-12T04:02:57.320Z,15.70
2019-03-12T04:05:25.739Z,19.63
2019-03-12T04:07:54.179Z,14.00
2019-03-12T04:10:22.626Z,18.53
2019-03-12T04:12:51.405Z,13.80
2019-03-12T04:15:19.904Z,11.67
2019-03-12T04:17:48.331Z,12.90
2019-03-12T04:20:20.303Z,8.40
2019-03-12T04:22:48.941Z,12.70
2019-03-12T04:25:17.443Z,12.50
2019-03-12T04:27:45.868Z,10.07
2019-03-12T04:30:16.513Z,12.60
2019-03-12T04:32:45.202Z,17.93
2019-03-12T04:35:25.051Z,14.53
2019-03-12T04:37:53.542Z,12.73
2019-03-12T04:40:22.004Z,18.00
2019-03-12T04:42:50.496Z,10.17
2019-03-12T04:45:18.939Z,12.27
2019-03-12T04:47:47.359Z,11.17
2019-03-12T04:50:16.025Z,19.47
2019-03-12T04:52:44.450Z,11.10
2019-03-12T04:55:16.657Z,9.23
2019-03-12T04:57:45.142Z,15.80
2019-03-12T05:00:16.650Z,10.37
2019-03-12T05:02:45.395Z,15.13
2019-03-12T05:05:13.971Z,11.53
2019-03-12T05:07:42.394Z,16.77
2019-03-12T05:10:15.980Z,12.33
2019-03-12T05:12:44.414Z,22.27
2019-03-12T05:15:16.883Z,14.90
2019-03-12T05:17:45.963Z,11.80
2019-03-12T05:20:15.679Z,19.70
2019-03-12T05:22:44.176Z,12.53
2019-03-12T05:25:13.851Z,15.80
2019-03-12T05:27:42.718Z,18.17
2019-03-12T05:30:14.488Z,17.03
2019-03-12T05:32:43.164Z,10.23
2019-03-12T05:35:11.611Z,17.40
2019-03-12T05:37:40.039Z,12.10
2019-03-12T05:40:10.607Z,18.40
2019-03-12T05:42:39.103Z,14.13
2019-03-12T05:45:12.737Z,10.63
2019-03-12T05:47:41.162Z,15.13
2019-03-12T05:50:20.898Z,12.07
2019-03-12T05:52:49.717Z,12.80
2019-03-12T05:55:18.551Z,11.77
2019-03-12T05:57:46.987Z,13.00
2019-03-12T06:00:20.681Z,12.70
2019-03-12T06:02:49.099Z,10.07
2019-03-12T06:05:17.614Z,19.23
2019-03-12T06:07:46.043Z,14.50
2019-03-12T06:10:15.723Z,17.13
2019-03-12T06:12:44.147Z,14.43
2019-03-12T06:15:14.219Z,15.77
2019-03-12T06:17:42.895Z,15.60
2019-03-12T06:20:15.201Z,12.10
2019-03-12T06:22:43.728Z,17.67
2019-03-12T06:25:13.631Z,15.37
2019-03-12T06:27:42.050Z,15.23
2019-03-12T06:30:13.297Z,18.10
2019-03-12T06:32:46.057Z,19.30
2019-03-12T06:35:16.126Z,18.40
2019-03-12T06:37:58.180Z,16.40
2019-03-12T06:40:37.199Z,11.40
2019-03-12T06:43:12.972Z,16.07
2019-03-12T06:45:58.911Z,21.80
2019-03-12T06:48:38.070Z,20.73
2019-03-12T06:51:08.159Z,14.33
2019-03-12T06:53:43.946Z,17.23
2019-03-12T06:56:14.278Z,18.17
2019-03-12T06:58:56.382Z,14.27
2019-03-12T07:01:32.404Z,9.97
2019-03-12T07:04:02.479Z,11.90
2019-03-12T07:06:41.580Z,13.53
2019-03-12T07:09:14.583Z,15.73
2019-03-12T07:11:44.663Z,16.50
2019-03-12T07:14:22.679Z,9.00
2019-03-12T07:16:58.431Z,11.87
2019-03-12T07:19:40.658Z,13.50
2019-03-12T07:22:16.706Z,13.13
2019-03-12T07:24:52.299Z,9.73
2019-03-12T07:27:22.358Z,14.50
2019-03-12T07:30:03.977Z,14.50
2019-03-12T07:32:39.610Z,14.27
2019-03-12T07:35:25.924Z,13.33
2019-03-12T07:37:58.690Z,12.87
2019-03-12T07:40:28.779Z,19.33
2019-03-12T07:42:58.839Z,15.70
2019-03-12T07:45:28.918Z,16.23
2019-03-12T07:48:01.636Z,17.73
2019-03-12T07:50:34.823Z,11.00
2019-03-12T07:53:04.966Z,9.47
2019-03-12T07:55:51.283Z,10.30
2019-03-12T07:58:35.214Z,11.20
2019-03-12T08:00:58.754Z,8.63
2019-03-12T08:03:44.789Z,11.17
2019-03-12T08:06:23.515Z,16.63
2019-03-12T08:08:53.575Z,12.13
2019-03-12T08:11:23.934Z,10.37
2019-03-12T08:13:54.431Z,11.27
2019-03-12T08:16:32.915Z,19.43
2019-03-12T08:19:02.997Z,16.97
2019-03-12T08:21:36.003Z,8.50
2019-03-12T08:24:13.745Z,8.47
2019-03-12T08:26:49.785Z,9.43
2019-03-12T08:29:31.550Z,13.33
2019-03-12T08:32:04.348Z,9.10
2019-03-12T08:34:49.299Z,9.37
2019-03-12T08:37:22.083Z,7.40
2019-03-12T08:39:55.418Z,8.13
2019-03-12T08:42:37.187Z,11.87
2019-03-12T08:45:11.043Z,8.50
2019-03-12T08:47:42.026Z,15.37
2019-03-12T08:50:28.422Z,15.00
2019-03-12T08:53:00.883Z,10.43
2019-03-12T08:55:45.839Z,11.00
2019-03-12T08:58:16.174Z,15.73
2019-03-12T09:00:46.281Z,13.90
2019-03-12T09:03:19.339Z,7.93
2019-03-12T09:06:05.759Z,10.37
2019-03-12T09:08:52.074Z,7.10
2019-03-12T09:11:37.888Z,10.57
2019-03-12T09:14:10.927Z,10.20
2019-03-12T09:16:49.615Z,9.60
2019-03-12T09:19:22.524Z,11.73
2019-03-12T09:21:58.404Z,16.27
2019-03-12T09:24:34.039Z,11.07
2019-03-12T09:27:19.963Z,10.90
2019-03-12T09:29:53.247Z,20.77
2019-03-12T09:32:35.031Z,10.80
2019-03-12T09:35:05.351Z,7.20
2019-03-12T09:37:35.422Z,7.40
2019-03-12T09:40:22.689Z,11.53
2019-03-12T09:43:04.767Z,10.67
2019-03-12T09:45:34.849Z,18.07
2019-03-12T09:48:04.966Z,8.23
2019-03-12T09:50:35.026Z,9.67
2019-03-12T09:53:08.307Z,6.60
2019-03-12T09:55:47.067Z,11.63
2019-03-12T09:58:23.083Z,7.23
2019-03-12T10:00:55.851Z,11.67
2019-03-12T10:03:31.867Z,10.93
2019-03-12T10:06:10.971Z,5.23
2019-03-12T10:08:41.052Z,10.20
2019-03-12T10:11:11.122Z,8.30
2019-03-12T10:13:41.271Z,9.77
2019-03-12T10:16:27.619Z,8.70
2019-03-12T10:19:03.814Z,7.97
2019-03-12T10:21:36.820Z,11.07
2019-03-12T10:24:12.396Z,6.57
2019-03-12T10:26:45.675Z,10.87
2019-03-12T10:29:31.978Z,8.33
2019-03-12T10:32:02.328Z,6.37
2019-03-12T10:34:47.776Z,6.47
2019-03-12T10:37:17.864Z,7.90
2019-03-12T10:39:58.091Z,10.53
2019-03-12T10:42:44.264Z,14.40
2019-03-12T10:45:26.557Z,7.40
2019-03-12T10:47:56.722Z,7.50
2019-03-12T10:50:25.170Z,7.67
2019-03-12T10:52:53.730Z,8.50
2019-03-12T10:55:22.234Z,9.23
2019-03-12T10:57:50.671Z,7.23
2019-03-12T11:00:19.805Z,16.40
2019-03-12T11:02:48.245Z,5.13
2019-03-12T11:05:18.080Z,10.20
2019-03-12T11:07:46.698Z,5.43
2019-03-12T11:10:16.473Z,8.43
2019-03-12T11:12:45.047Z,8.30
2019-03-12T11:15:15.028Z,5.57
2019-03-12T11:17:49.404Z,7.50
2019-03-12T11:20:24.394Z,7.00
2019-03-12T11:22:53.143Z,5.57
2019-03-12T11:25:27.231Z,9.10
2019-03-12T11:27:52.071Z,5.77
2019-03-12T11:30:20.835Z,3.73
2019-03-12T11:32:49.655Z,6.43
2019-03-12T11:35:18.187Z,6.27
2019-03-12T11:37:46.689Z,10.30
2019-03-12T11:40:17.545Z,6.20
2019-03-12T11:42:46.397Z,11.90
2019-03-12T11:45:18.579Z,7.73
2019-03-12T11:47:45.532Z,3.50
2019-03-12T11:50:21.195Z,6.60
2019-03-12T11:52:56.446Z,6.23
2019-03-12T11:55:20.031Z,7.00
2019-03-12T11:57:48.739Z,4.57
2019-03-12T12:00:23.935Z,4.27
2019-03-12T12:02:59.891Z,5.50
2019-03-12T12:05:22.632Z,10.07
2019-03-12T12:07:51.347Z,5.07
2019-03-12T12:10:20.144Z,8.73
2019-03-12T12:12:48.703Z,5.87
2019-03-12T12:15:17.220Z,5.10
2019-03-12T12:17:45.800Z,3.90
2019-03-12T12:20:28.700Z,9.60
2019-03-12T12:22:47.139Z,13.30
2019-03-12T12:25:19.843Z,8.90
2019-03-12T12:27:48.273Z,5.50
2019-03-12T12:30:20.948Z,7.20
2019-03-12T12:32:49.466Z,12.33
2019-03-12T12:35:18.166Z,8.20
2019-03-12T12:37:46.586Z,5.37
2019-03-12T12:40:16.666Z,7.97
2019-03-12T12:42:45.105Z,8.30
2019-03-12T12:45:19.226Z,8.97
2019-03-12T12:47:47.715Z,8.60
2019-03-12T12:50:16.606Z,5.33
2019-03-12T12:52:45.052Z,7.83
2019-03-12T12:55:14.525Z,10.47
2019-03-12T12:57:42.950Z,6.10
2019-03-12T13:00:14.763Z,4.70
2019-03-12T13:02:43.378Z,6.27
2019-03-12T13:05:11.889Z,9.60
2019-03-12T13:07:40.395Z,4.50
2019-03-12T13:10:11.740Z,7.10
2019-03-12T13:12:40.434Z,7.37
2019-03-12T13:15:11.028Z,7.53
2019-03-12T13:17:39.784Z,4.97
2019-03-12T13:20:09.978Z,5.73
2019-03-12T13:22:38.440Z,3.90
2019-03-12T13:25:10.279Z,5.00
2019-03-12T13:27:42.467Z,13.73
2019-03-12T13:30:20.837Z,4.60
2019-03-12T13:32:49.350Z,4.73
2019-03-12T13:35:18.900Z,6.50
2019-03-12T13:37:48.256Z,7.17
2019-03-12T13:40:22.290Z,3.90
2019-03-12T13:42:50.877Z,9.07
2019-03-12T13:45:28.265Z,5.70
2019-03-12T13:47:57.105Z,3.30
2019-03-12T13:50:26.090Z,5.47
2019-03-12T13:52:54.671Z,4.10
2019-03-12T13:55:23.462Z,8.90
2019-03-12T13:57:51.951Z,4.97
2019-03-12T14:00:24.610Z,7.50
2019-03-12T14:02:53.621Z,2.77
2019-03-12T14:05:22.208Z,4.20
2019-03-12T14:07:50.917Z,10.40
2019-03-12T14:10:23.672Z,3.90
2019-03-12T14:12:53.312Z,6.50
2019-03-12T14:15:32.292Z,3.50
2019-03-12T14:18:00.851Z,7.73
2019-03-12T14:21:04.817Z,5.20
2019-03-12T14:23:54.585Z,4.90
2019-03-12T14:26:23.030Z,4.87
2019-03-12T14:28:52.717Z,5.07
2019-03-12T14:31:21.683Z,6.00
2019-03-12T14:33:50.255Z,4.70
2019-03-12T14:36:18.699Z,5.57
2019-03-12T14:38:47.122Z,5.33
2019-03-12T14:41:15.649Z,3.60
2019-03-12T14:43:44.131Z,6.90
2019-03-12T14:46:12.799Z,4.30
2019-03-12T14:48:52.111Z,6.53
2019-03-12T14:51:29.262Z,4.53
2019-03-12T14:54:09.039Z,9.97
2019-03-12T14:56:37.486Z,4.73
2019-03-12T14:59:06.105Z,10.07
2019-03-12T15:01:34.611Z,6.80
2019-03-12T15:04:03.053Z,4.50
2019-03-12T15:06:31.933Z,7.90
2019-03-12T15:09:00.424Z,4.07
2019-03-12T15:11:29.147Z,7.47
2019-03-12T15:13:57.574Z,4.37
2019-03-12T15:16:26.088Z,6.83
2019-03-12T15:18:54.515Z,6.00
2019-03-12T15:21:22.971Z,10.10
2019-03-12T15:23:51.398Z,7.50
2019-03-12T15:26:19.843Z,5.30
2019-03-12T15:28:48.275Z,7.87
2019-03-12T15:31:16.715Z,6.80
2019-03-12T15:33:45.214Z,4.83
2019-03-12T15:36:13.927Z,8.33
2019-03-12T15:38:42.360Z,9.90
2019-03-12T15:41:11.122Z,6.87
2019-03-12T15:43:39.552Z,7.73
2019-03-12T15:46:08.247Z,5.93
2019-03-12T15:48:37.106Z,5.03
2019-03-12T15:51:05.632Z,6.13
2019-03-12T15:53:34.122Z,6.00
2019-03-12T15:56:02.839Z,5.63
2019-03-12T15:58:31.526Z,3.93
2019-03-12T16:01:02.498Z,4.07
2019-03-12T16:03:30.396Z,6.13
2019-03-12T16:05:58.862Z,6.57
2019-03-12T16:08:27.538Z,3.17
2019-03-12T16:10:58.208Z,5.63
2019-03-12T16:13:26.248Z,2.90
2019-03-12T16:15:54.738Z,9.33
2019-03-12T16:18:23.171Z,6.43
2019-03-12T16:20:51.778Z,6.30
2019-03-12T16:23:20.232Z,2.50
2019-03-12T16:25:48.691Z,8.80
2019-03-12T16:28:17.375Z,4.30
2019-03-12T16:30:45.814Z,4.10
2019-03-12T16:33:14.246Z,2.47
2019-03-12T16:35:42.694Z,5.50
2019-03-12T16:38:11.124Z,2.90
2019-03-12T16:40:39.573Z,7.40
2019-03-12T16:43:08.263Z,7.63
2019-03-12T16:45:36.692Z,3.93
2019-03-12T16:48:05.238Z,2.87
2019-03-12T16:50:33.682Z,5.27
2019-03-12T16:53:02.111Z,6.27
2019-03-12T16:55:30.606Z,4.73
2019-03-12T16:57:59.038Z,3.13
2019-03-12T17:00:27.511Z,5.57
2019-03-12T17:02:56.027Z,3.03
2019-03-12T17:05:26.296Z,2.97
2019-03-12T17:07:55.322Z,7.03
2019-03-12T17:10:24.031Z,6.10
2019-03-12T17:12:52.451Z,11.40
2019-03-12T17:15:28.240Z,5.00
2019-03-12T17:17:56.662Z,2.70
2019-03-12T17:20:25.106Z,5.70
2019-03-12T17:22:53.795Z,2.97
2019-03-12T17:25:22.223Z,4.97
2019-03-12T17:27:51.868Z,3.20
2019-03-12T17:30:22.011Z,3.03
2019-03-12T17:32:50.566Z,5.23
2019-03-12T17:35:30.603Z,5.40
2019-03-12T17:37:59.041Z,4.20
2019-03-12T17:40:27.475Z,2.53
2019-03-12T17:42:55.987Z,8.07
2019-03-12T17:45:24.413Z,4.50
2019-03-12T17:47:52.846Z,4.73
2019-03-12T17:50:21.288Z,6.10
2019-03-12T17:52:49.793Z,4.60
2019-03-12T17:55:18.295Z,7.90
2019-03-12T17:57:46.857Z,5.70
2019-03-12T18:00:23.545Z,4.40
2019-03-12T18:02:52.001Z,2.43
2019-03-12T18:05:20.629Z,4.10
2019-03-12T18:07:49.207Z,4.60
2019-03-12T18:10:18.280Z,3.97
2019-03-12T18:12:46.804Z,6.47
2019-03-12T18:15:19.827Z,4.03
2019-03-12T18:17:48.951Z,3.23
2019-03-12T18:20:21.111Z,5.00
2019-03-12T18:22:49.601Z,5.20
2019-03-12T18:25:29.319Z,5.30
2019-03-12T18:27:57.912Z,5.37
2019-03-12T18:30:26.431Z,3.60
2019-03-12T18:32:54.952Z,6.77
2019-03-12T18:35:23.383Z,3.60
2019-03-12T18:37:51.828Z,3.43
2019-03-12T18:40:26.629Z,2.50
2019-03-12T18:42:55.366Z,4.70
2019-03-12T18:45:29.776Z,2.50
2019-03-12T18:47:58.293Z,4.07
2019-03-12T18:50:26.749Z,5.13
2019-03-12T18:52:55.255Z,2.90
2019-03-12T18:55:32.831Z,4.43
2019-03-12T18:58:01.737Z,1.67
2019-03-12T19:00:30.617Z,4.03
2019-03-12T19:02:59.375Z,4.13
2019-03-12T19:05:28.459Z,2.50
2019-03-12T19:07:57.065Z,2.50
2019-03-12T19:10:25.570Z,5.20
2019-03-12T19:12:54.089Z,5.63
2019-03-12T19:15:22.658Z,3.20
2019-03-12T19:17:51.091Z,4.00
2019-03-12T19:20:20.170Z,3.57
2019-03-12T19:22:48.951Z,2.77
2019-03-12T19:25:21.743Z,4.13
2019-03-12T19:27:59.958Z,5.60
2019-03-12T19:30:20.768Z,7.10
2019-03-12T19:32:56.982Z,7.03
2019-03-12T19:35:27.038Z,3.20
2019-03-12T19:37:56.295Z,6.00
2019-03-12T19:40:36.289Z,7.13
2019-03-12T19:43:04.859Z,5.57
2019-03-12T19:45:33.545Z,8.33
2019-03-12T19:48:02.249Z,10.23
2019-03-12T19:50:30.734Z,4.77
2019-03-12T19:52:59.178Z,4.13
2019-03-12T19:55:54.458Z,6.80
2019-03-12T19:58:22.907Z,5.83
2019-03-12T20:00:51.830Z,7.50
2019-03-12T20:03:20.294Z,4.83
2019-03-12T20:05:48.711Z,4.47
2019-03-12T20:08:17.159Z,4.43
2019-03-12T20:11:12.550Z,5.40
2019-03-12T20:14:04.173Z,3.57
2019-03-12T20:17:08.606Z,7.70
2019-03-12T20:19:47.855Z,3.10
2019-03-12T20:22:50.630Z,5.83
2019-03-12T20:25:37.131Z,5.67
2019-03-12T20:28:38.694Z,3.80
2019-03-12T20:31:26.471Z,3.53
2019-03-12T20:34:30.886Z,4.30
2019-03-12T20:37:23.548Z,4.70
2019-03-12T20:40:11.272Z,6.37
2019-03-12T20:43:00.270Z,3.20
2019-03-12T20:46:00.679Z,3.63
2019-03-12T20:48:41.098Z,4.80
2019-03-12T20:51:30.180Z,5.60
2019-03-12T20:54:09.843Z,5.13
2019-03-12T20:57:07.009Z,5.57
2019-03-12T21:00:06.684Z,4.30
2019-03-12T21:02:40.916Z,3.67
2019-03-12T21:05:15.254Z,4.70
2019-03-12T21:08:11.880Z,6.43
2019-03-12T21:11:05.700Z,4.23
2019-03-12T21:13:57.817Z,4.23
2019-03-12T21:17:02.139Z,5.77
2019-03-12T21:19:50.143Z,3.87
2019-03-12T21:22:27.831Z,2.83
2019-03-12T21:24:59.335Z,3.90
2019-03-12T21:27:47.434Z,3.23
2019-03-12T21:30:15.055Z,0.93
2019-03-12T21:32:43.564Z,2.50
2019-03-12T21:35:12.008Z,1.03
2019-03-12T21:37:40.679Z,0.90
2019-03-12T21:40:10.311Z,1.90
2019-03-12T21:42:39.015Z,1.00
2019-03-12T21:45:10.827Z,1.20
2019-03-12T21:47:39.312Z,6.10
2019-03-12T21:50:09.782Z,1.10
2019-03-12T21:52:38.279Z,1.30
2019-03-12T21:55:12.597Z,2.40
2019-03-12T21:57:41.123Z,1.70
2019-03-12T22:00:12.951Z,1.40
2019-03-12T22:02:41.371Z,1.40
2019-03-12T22:05:10.312Z,1.73
2019-03-12T22:07:39.043Z,1.80
2019-03-12T22:10:10.251Z,2.50
2019-03-12T22:12:38.664Z,3.00
2019-03-12T22:15:10.695Z,3.93
2019-03-12T22:17:39.127Z,3.80
2019-03-12T22:20:15.339Z,4.57
2019-03-12T22:22:54.129Z,4.30
2019-03-12T22:25:22.566Z,3.97
2019-03-12T22:27:50.987Z,4.77
2019-03-12T22:30:24.657Z,4.73
2019-03-12T22:32:53.342Z,4.57
2019-03-12T22:35:22.086Z,5.50
2019-03-12T22:37:50.783Z,6.20
2019-03-12T22:40:19.234Z,4.53
2019-03-12T22:42:47.653Z,6.23
2019-03-12T22:45:16.580Z,7.67
2019-03-12T22:47:45.291Z,8.90
2019-03-12T22:50:15.783Z,6.63
2019-03-12T22:52:44.214Z,6.17
2019-03-12T22:55:13.486Z,7.10
2019-03-12T22:57:42.158Z,12.33
2019-03-12T23:00:21.191Z,8.37
2019-03-12T23:02:49.678Z,5.50
2019-03-12T23:05:18.380Z,3.87
2019-03-12T23:07:46.797Z,7.93
2019-03-12T23:10:16.543Z,7.23
2019-03-12T23:12:45.219Z,6.60
2019-03-12T23:15:18.352Z,5.07
2019-03-12T23:17:47.216Z,10.80
2019-03-12T23:20:19.224Z,8.20
2019-03-12T23:22:47.835Z,8.30
2019-03-12T23:25:16.588Z,5.70
2019-03-12T23:27:44.999Z,6.37
2019-03-12T23:30:15.741Z,6.70
2019-03-12T23:32:44.494Z,8.53
2019-03-12T23:35:13.019Z,6.90
2019-03-12T23:37:41.779Z,5.00
2019-03-12T23:40:16.025Z,15.13
2019-03-12T23:42:44.706Z,9.27
2019-03-12T23:45:15.768Z,7.40
2019-03-12T23:47:44.511Z,5.63
2019-03-12T23:50:14.993Z,7.33
2019-03-12T23:52:43.574Z,7.80
2019-03-12T23:55:13.515Z,5.50
2019-03-12T23:57:42.204Z,6.23
